sensor_id;sensor_type;location;lat;lon;timestamp;temperature;humidity
52965;DHT22;42923;53.220;6.528;2022-09-03T00:00:15;16.30;99.40
52965;DHT22;42923;53.220;6.528;2022-09-03T00:03:05;16.30;99.90
52965;DHT22;42923;53.220;6.528;2022-09-03T00:08:28;16.20;99.90
52965;DHT22;42923;53.220;6.528;2022-09-03T00:13:48;16.10;99.90
52965;DHT22;42923;53.220;6.528;2022-09-03T00:16:17;16.10;99.90
52965;DHT22;42923;53.220;6.528;2022-09-03T00:18:54;16.10;99.90
52965;DHT22;42923;53.220;6.528;2022-09-03T00:21:36;16.00;99.90
52965;DHT22;42923;53.220;6.528;2022-09-03T00:24:04;16.00;99.90
52965;DHT22;42923;53.220;6.528;2022-09-03T00:26:33;16.00;99.90
52965;DHT22;42923;53.220;6.528;2022-09-03T00:31:49;16.00;99.90
52965;DHT22;42923;53.220;6.528;2022-09-03T00:36:52;15.90;99.90
52965;DHT22;42923;53.220;6.528;2022-09-03T00:39:21;15.80;99.90
52965;DHT22;42923;53.220;6.528;2022-09-03T00:41:49;15.90;99.90
52965;DHT22;42923;53.220;6.528;2022-09-03T00:47:11;15.70;99.90
52965;DHT22;42923;53.220;6.528;2022-09-03T00:53:06;15.70;99.90
52965;DHT22;42923;53.220;6.528;2022-09-03T01:00:46;15.70;99.90
52965;DHT22;42923;53.220;6.528;2022-09-03T01:03:34;15.70;99.90
52965;DHT22;42923;53.220;6.528;2022-09-03T01:14:53;15.60;99.90
52965;DHT22;42923;53.220;6.528;2022-09-03T01:33:42;15.40;99.90
52965;DHT22;42923;53.220;6.528;2022-09-03T01:36:23;15.40;99.90
52965;DHT22;42923;53.220;6.528;2022-09-03T01:39:06;15.40;99.90
52965;DHT22;42923;53.220;6.528;2022-09-03T01:50:52;15.30;99.90
52965;DHT22;42923;53.220;6.528;2022-09-03T01:59:22;15.30;99.90
52965;DHT22;42923;53.220;6.528;2022-09-03T02:05:06;15.20;99.90
52965;DHT22;42923;53.220;6.528;2022-09-03T02:10:08;15.10;99.90
52965;DHT22;42923;53.220;6.528;2022-09-03T02:12:38;15.10;99.90
52965;DHT22;42923;53.220;6.528;2022-09-03T02:15:09;15.10;99.90
52965;DHT22;42923;53.220;6.528;2022-09-03T02:17:37;15.00;99.90
52965;DHT22;42923;53.220;6.528;2022-09-03T02:20:06;14.90;99.90
52965;DHT22;42923;53.220;6.528;2022-09-03T02:22:33;14.80;99.90
52965;DHT22;42923;53.220;6.528;2022-09-03T02:24:59;14.80;99.90
52965;DHT22;42923;53.220;6.528;2022-09-03T02:27:26;14.70;99.90
52965;DHT22;42923;53.220;6.528;2022-09-03T02:29:52;14.70;99.90
52965;DHT22;42923;53.220;6.528;2022-09-03T02:32:18;14.60;99.90
52965;DHT22;42923;53.220;6.528;2022-09-03T02:34:43;14.50;99.90
52965;DHT22;42923;53.220;6.528;2022-09-03T02:37:14;14.50;99.90
52965;DHT22;42923;53.220;6.528;2022-09-03T02:39:40;14.40;99.90
52965;DHT22;42923;53.220;6.528;2022-09-03T02:42:06;14.40;99.90
52965;DHT22;42923;53.220;6.528;2022-09-03T02:44:37;14.30;99.90
52965;DHT22;42923;53.220;6.528;2022-09-03T02:47:06;14.30;99.90
52965;DHT22;42923;53.220;6.528;2022-09-03T02:49:32;14.30;99.90
52965;DHT22;42923;53.220;6.528;2022-09-03T02:52:01;14.20;99.90
52965;DHT22;42923;53.220;6.528;2022-09-03T02:54:31;14.20;99.90
52965;DHT22;42923;53.220;6.528;2022-09-03T02:57:00;14.20;99.90
52965;DHT22;42923;53.220;6.528;2022-09-03T02:59:26;14.10;99.90
52965;DHT22;42923;53.220;6.528;2022-09-03T03:01:55;14.00;99.90
52965;DHT22;42923;53.220;6.528;2022-09-03T03:04:20;14.00;99.90
52965;DHT22;42923;53.220;6.528;2022-09-03T03:06:46;13.90;99.90
52965;DHT22;42923;53.220;6.528;2022-09-03T03:09:17;13.90;99.90
52965;DHT22;42923;53.220;6.528;2022-09-03T03:11:44;13.80;99.90
52965;DHT22;42923;53.220;6.528;2022-09-03T03:14:09;13.80;99.90
52965;DHT22;42923;53.220;6.528;2022-09-03T03:16:35;13.80;99.90
52965;DHT22;42923;53.220;6.528;2022-09-03T03:19:01;13.70;99.90
52965;DHT22;42923;53.220;6.528;2022-09-03T03:21:27;13.80;99.90
52965;DHT22;42923;53.220;6.528;2022-09-03T03:23:53;13.70;99.90
52965;DHT22;42923;53.220;6.528;2022-09-03T03:26:20;13.80;99.90
52965;DHT22;42923;53.220;6.528;2022-09-03T03:28:47;13.70;99.90
52965;DHT22;42923;53.220;6.528;2022-09-03T03:31:15;13.70;99.90
52965;DHT22;42923;53.220;6.528;2022-09-03T03:33:42;13.80;99.90
52965;DHT22;42923;53.220;6.528;2022-09-03T03:36:12;13.70;99.90
52965;DHT22;42923;53.220;6.528;2022-09-03T03:38:40;13.70;99.90
52965;DHT22;42923;53.220;6.528;2022-09-03T03:43:32;13.70;99.90
52965;DHT22;42923;53.220;6.528;2022-09-03T03:45:58;13.90;99.90
52965;DHT22;42923;53.220;6.528;2022-09-03T03:48:24;13.70;99.90
52965;DHT22;42923;53.220;6.528;2022-09-03T03:50:50;13.80;99.90
52965;DHT22;42923;53.220;6.528;2022-09-03T03:53:16;13.80;99.90
52965;DHT22;42923;53.220;6.528;2022-09-03T03:55:42;13.80;99.90
52965;DHT22;42923;53.220;6.528;2022-09-03T03:58:07;13.90;99.90
52965;DHT22;42923;53.220;6.528;2022-09-03T04:00:33;14.00;99.90
52965;DHT22;42923;53.220;6.528;2022-09-03T04:03:05;14.00;99.90
52965;DHT22;42923;53.220;6.528;2022-09-03T04:05:31;14.00;99.90
52965;DHT22;42923;53.220;6.528;2022-09-03T04:08:00;14.00;99.90
52965;DHT22;42923;53.220;6.528;2022-09-03T04:10:27;14.10;99.90
52965;DHT22;42923;53.220;6.528;2022-09-03T04:12:55;14.10;99.90
52965;DHT22;42923;53.220;6.528;2022-09-03T04:15:21;14.10;99.90
52965;DHT22;42923;53.220;6.528;2022-09-03T04:17:47;14.10;99.90
52965;DHT22;42923;53.220;6.528;2022-09-03T04:20:12;14.10;99.90
52965;DHT22;42923;53.220;6.528;2022-09-03T04:22:38;14.10;99.90
52965;DHT22;42923;53.220;6.528;2022-09-03T04:25:04;14.10;99.90
52965;DHT22;42923;53.220;6.528;2022-09-03T04:27:30;14.10;99.90
52965;DHT22;42923;53.220;6.528;2022-09-03T04:29:55;14.20;99.90
52965;DHT22;42923;53.220;6.528;2022-09-03T04:32:21;14.20;99.90
52965;DHT22;42923;53.220;6.528;2022-09-03T04:35:06;14.20;99.90
52965;DHT22;42923;53.220;6.528;2022-09-03T04:37:32;14.20;99.90
52965;DHT22;42923;53.220;6.528;2022-09-03T04:39:57;14.20;99.90
52965;DHT22;42923;53.220;6.528;2022-09-03T04:42:23;14.20;99.90
52965;DHT22;42923;53.220;6.528;2022-09-03T04:44:49;14.20;99.90
52965;DHT22;42923;53.220;6.528;2022-09-03T04:47:15;14.20;99.90
52965;DHT22;42923;53.220;6.528;2022-09-03T04:49:41;14.20;99.90
52965;DHT22;42923;53.220;6.528;2022-09-03T04:52:06;14.20;99.90
52965;DHT22;42923;53.220;6.528;2022-09-03T04:54:32;14.20;99.90
52965;DHT22;42923;53.220;6.528;2022-09-03T04:56:58;14.20;99.90
52965;DHT22;42923;53.220;6.528;2022-09-03T04:59:23;14.10;99.90
52965;DHT22;42923;53.220;6.528;2022-09-03T05:01:49;14.00;99.90
52965;DHT22;42923;53.220;6.528;2022-09-03T05:04:17;14.10;99.90
52965;DHT22;42923;53.220;6.528;2022-09-03T05:06:44;14.00;99.90
52965;DHT22;42923;53.220;6.528;2022-09-03T05:09:10;14.00;99.90
52965;DHT22;42923;53.220;6.528;2022-09-03T05:11:36;14.10;99.90
52965;DHT22;42923;53.220;6.528;2022-09-03T05:14:02;14.10;99.90
52965;DHT22;42923;53.220;6.528;2022-09-03T05:16:30;14.00;99.90
52965;DHT22;42923;53.220;6.528;2022-09-03T05:18:57;14.00;99.90
52965;DHT22;42923;53.220;6.528;2022-09-03T05:21:24;14.10;99.90
52965;DHT22;42923;53.220;6.528;2022-09-03T05:23:51;14.10;99.90
52965;DHT22;42923;53.220;6.528;2022-09-03T05:26:23;14.10;99.90
52965;DHT22;42923;53.220;6.528;2022-09-03T05:28:53;14.20;99.90
52965;DHT22;42923;53.220;6.528;2022-09-03T05:31:21;14.20;99.90
52965;DHT22;42923;53.220;6.528;2022-09-03T05:33:49;14.20;99.90
52965;DHT22;42923;53.220;6.528;2022-09-03T05:36:17;14.20;99.90
52965;DHT22;42923;53.220;6.528;2022-09-03T05:38:44;14.20;99.90
52965;DHT22;42923;53.220;6.528;2022-09-03T05:41:12;14.30;99.90
52965;DHT22;42923;53.220;6.528;2022-09-03T05:43:39;14.20;99.90
52965;DHT22;42923;53.220;6.528;2022-09-03T05:46:07;14.20;99.90
52965;DHT22;42923;53.220;6.528;2022-09-03T05:48:34;14.20;99.90
52965;DHT22;42923;53.220;6.528;2022-09-03T05:51:05;14.20;99.90
52965;DHT22;42923;53.220;6.528;2022-09-03T05:53:34;14.20;99.90
52965;DHT22;42923;53.220;6.528;2022-09-03T05:56:02;14.20;99.90
52965;DHT22;42923;53.220;6.528;2022-09-03T05:58:36;14.20;99.90
52965;DHT22;42923;53.220;6.528;2022-09-03T06:03:35;14.10;99.90
52965;DHT22;42923;53.220;6.528;2022-09-03T06:06:01;14.20;99.90
52965;DHT22;42923;53.220;6.528;2022-09-03T06:08:29;14.20;99.90
52965;DHT22;42923;53.220;6.528;2022-09-03T06:10:59;14.30;99.90
52965;DHT22;42923;53.220;6.528;2022-09-03T06:13:25;14.10;99.90
52965;DHT22;42923;53.220;6.528;2022-09-03T06:15:58;14.20;99.90
52965;DHT22;42923;53.220;6.528;2022-09-03T06:18:25;14.20;99.90
52965;DHT22;42923;53.220;6.528;2022-09-03T06:20:55;14.20;99.90
52965;DHT22;42923;53.220;6.528;2022-09-03T06:23:22;14.20;99.90
52965;DHT22;42923;53.220;6.528;2022-09-03T06:26:02;14.30;99.90
52965;DHT22;42923;53.220;6.528;2022-09-03T06:28:30;14.30;99.90
52965;DHT22;42923;53.220;6.528;2022-09-03T06:31:00;14.30;99.90
52965;DHT22;42923;53.220;6.528;2022-09-03T06:33:28;14.30;99.90
52965;DHT22;42923;53.220;6.528;2022-09-03T06:35:58;14.40;99.90
52965;DHT22;42923;53.220;6.528;2022-09-03T06:38:26;14.50;99.90
52965;DHT22;42923;53.220;6.528;2022-09-03T06:40:58;14.70;99.90
52965;DHT22;42923;53.220;6.528;2022-09-03T06:43:36;15.00;99.90
52965;DHT22;42923;53.220;6.528;2022-09-03T06:46:11;14.70;99.90
52965;DHT22;42923;53.220;6.528;2022-09-03T06:48:37;14.90;99.90
52965;DHT22;42923;53.220;6.528;2022-09-03T06:51:05;15.00;99.90
52965;DHT22;42923;53.220;6.528;2022-09-03T06:53:33;15.10;99.90
52965;DHT22;42923;53.220;6.528;2022-09-03T06:56:01;15.10;99.90
52965;DHT22;42923;53.220;6.528;2022-09-03T06:58:32;15.20;99.90
52965;DHT22;42923;53.220;6.528;2022-09-03T07:01:10;15.30;99.90
52965;DHT22;42923;53.220;6.528;2022-09-03T07:03:37;15.40;99.90
52965;DHT22;42923;53.220;6.528;2022-09-03T07:06:06;15.40;99.90
52965;DHT22;42923;53.220;6.528;2022-09-03T07:08:32;15.60;99.90
52965;DHT22;42923;53.220;6.528;2022-09-03T07:11:03;15.70;99.90
52965;DHT22;42923;53.220;6.528;2022-09-03T07:13:30;15.80;99.90
52965;DHT22;42923;53.220;6.528;2022-09-03T07:16:02;16.10;99.90
52965;DHT22;42923;53.220;6.528;2022-09-03T07:18:29;16.00;99.90
52965;DHT22;42923;53.220;6.528;2022-09-03T07:21:08;16.00;99.90
52965;DHT22;42923;53.220;6.528;2022-09-03T07:23:35;16.10;99.90
52965;DHT22;42923;53.220;6.528;2022-09-03T07:26:04;16.20;99.90
52965;DHT22;42923;53.220;6.528;2022-09-03T07:28:31;16.20;99.90
52965;DHT22;42923;53.220;6.528;2022-09-03T07:31:14;16.40;99.90
52965;DHT22;42923;53.220;6.528;2022-09-03T07:33:41;16.50;99.90
52965;DHT22;42923;53.220;6.528;2022-09-03T07:36:09;16.70;99.90
52965;DHT22;42923;53.220;6.528;2022-09-03T07:38:35;17.00;99.90
52965;DHT22;42923;53.220;6.528;2022-09-03T07:41:04;17.50;99.90
52965;DHT22;42923;53.220;6.528;2022-09-03T07:43:36;17.90;99.90
52965;DHT22;42923;53.220;6.528;2022-09-03T07:46:05;18.20;99.90
52965;DHT22;42923;53.220;6.528;2022-09-03T07:48:31;18.20;99.90
52965;DHT22;42923;53.220;6.528;2022-09-03T07:51:00;18.30;99.90
52965;DHT22;42923;53.220;6.528;2022-09-03T07:53:27;18.20;99.90
52965;DHT22;42923;53.220;6.528;2022-09-03T07:56:00;18.20;99.90
52965;DHT22;42923;53.220;6.528;2022-09-03T07:58:28;18.20;99.90
52965;DHT22;42923;53.220;6.528;2022-09-03T08:00:54;18.20;99.90
52965;DHT22;42923;53.220;6.528;2022-09-03T08:03:21;18.20;99.90
52965;DHT22;42923;53.220;6.528;2022-09-03T08:05:47;18.10;99.90
52965;DHT22;42923;53.220;6.528;2022-09-03T08:08:13;18.10;99.90
52965;DHT22;42923;53.220;6.528;2022-09-03T08:10:40;18.20;99.90
52965;DHT22;42923;53.220;6.528;2022-09-03T08:13:06;18.20;99.90
52965;DHT22;42923;53.220;6.528;2022-09-03T08:15:33;18.30;99.90
52965;DHT22;42923;53.220;6.528;2022-09-03T08:18:02;18.30;99.90
52965;DHT22;42923;53.220;6.528;2022-09-03T08:20:29;18.40;99.90
52965;DHT22;42923;53.220;6.528;2022-09-03T08:23:02;18.40;99.90
52965;DHT22;42923;53.220;6.528;2022-09-03T08:25:28;18.60;99.90
52965;DHT22;42923;53.220;6.528;2022-09-03T08:27:57;18.70;99.90
52965;DHT22;42923;53.220;6.528;2022-09-03T08:30:23;18.80;99.90
52965;DHT22;42923;53.220;6.528;2022-09-03T08:32:49;18.80;99.90
52965;DHT22;42923;53.220;6.528;2022-09-03T08:35:15;18.90;99.90
52965;DHT22;42923;53.220;6.528;2022-09-03T08:37:41;18.90;99.90
52965;DHT22;42923;53.220;6.528;2022-09-03T08:40:07;19.00;99.90
52965;DHT22;42923;53.220;6.528;2022-09-03T08:45:20;19.10;99.90
52965;DHT22;42923;53.220;6.528;2022-09-03T08:48:02;19.20;99.90
52965;DHT22;42923;53.220;6.528;2022-09-03T08:50:56;19.40;99.90
52965;DHT22;42923;53.220;6.528;2022-09-03T08:53:48;19.50;99.90
52965;DHT22;42923;53.220;6.528;2022-09-03T08:56:23;19.40;99.90
52965;DHT22;42923;53.220;6.528;2022-09-03T08:58:50;19.60;99.90
52965;DHT22;42923;53.220;6.528;2022-09-03T09:01:29;19.50;99.90
52965;DHT22;42923;53.220;6.528;2022-09-03T09:06:45;19.70;99.90
52965;DHT22;42923;53.220;6.528;2022-09-03T09:09:23;19.80;99.90
52965;DHT22;42923;53.220;6.528;2022-09-03T09:22:56;20.10;99.90
52965;DHT22;42923;53.220;6.528;2022-09-03T09:25:23;20.20;99.90
52965;DHT22;42923;53.220;6.528;2022-09-03T09:28:03;20.20;99.90
52965;DHT22;42923;53.220;6.528;2022-09-03T09:30:31;20.30;99.90
52965;DHT22;42923;53.220;6.528;2022-09-03T09:32:57;20.40;99.90
52965;DHT22;42923;53.220;6.528;2022-09-03T09:35:25;20.60;99.70
52965;DHT22;42923;53.220;6.528;2022-09-03T09:40:34;20.70;98.90
52965;DHT22;42923;53.220;6.528;2022-09-03T09:45:30;20.80;98.20
52965;DHT22;42923;53.220;6.528;2022-09-03T09:47:58;20.90;97.90
52965;DHT22;42923;53.220;6.528;2022-09-03T09:50:25;20.90;97.70
52965;DHT22;42923;53.220;6.528;2022-09-03T09:53:05;21.00;96.20
52965;DHT22;42923;53.220;6.528;2022-09-03T09:55:52;21.10;95.70
52965;DHT22;42923;53.220;6.528;2022-09-03T09:58:19;21.20;94.80
52965;DHT22;42923;53.220;6.528;2022-09-03T10:03:32;21.40;93.90
52965;DHT22;42923;53.220;6.528;2022-09-03T10:06:03;21.40;93.90
52965;DHT22;42923;53.220;6.528;2022-09-03T10:08:49;21.60;93.30
52965;DHT22;42923;53.220;6.528;2022-09-03T10:11:17;21.70;92.50
52965;DHT22;42923;53.220;6.528;2022-09-03T10:13:46;21.80;91.00
52965;DHT22;42923;53.220;6.528;2022-09-03T10:21:54;22.10;90.00
52965;DHT22;42923;53.220;6.528;2022-09-03T10:24:29;22.20;90.00
52965;DHT22;42923;53.220;6.528;2022-09-03T10:26:56;22.40;91.20
52965;DHT22;42923;53.220;6.528;2022-09-03T10:29:23;22.70;88.10
52965;DHT22;42923;53.220;6.528;2022-09-03T10:32:12;23.00;85.50
52965;DHT22;42923;53.220;6.528;2022-09-03T10:40:39;24.70;81.60
52965;DHT22;42923;53.220;6.528;2022-09-03T10:45:47;25.70;72.70
52965;DHT22;42923;53.220;6.528;2022-09-03T10:51:27;26.40;67.70
52965;DHT22;42923;53.220;6.528;2022-09-03T10:54:10;26.70;69.80
52965;DHT22;42923;53.220;6.528;2022-09-03T11:05:13;27.80;65.50
52965;DHT22;42923;53.220;6.528;2022-09-03T11:08:05;28.00;64.70
52965;DHT22;42923;53.220;6.528;2022-09-03T11:10:41;28.20;60.40
52965;DHT22;42923;53.220;6.528;2022-09-03T11:13:16;28.30;62.30
52965;DHT22;42923;53.220;6.528;2022-09-03T11:15:58;28.50;60.80
52965;DHT22;42923;53.220;6.528;2022-09-03T11:18:32;28.50;59.50
52965;DHT22;42923;53.220;6.528;2022-09-03T11:21:04;28.60;60.80
52965;DHT22;42923;53.220;6.528;2022-09-03T11:23:33;28.70;60.30
52965;DHT22;42923;53.220;6.528;2022-09-03T11:26:07;28.90;59.30
52965;DHT22;42923;53.220;6.528;2022-09-03T11:31:17;29.20;56.90
52965;DHT22;42923;53.220;6.528;2022-09-03T11:33:57;29.20;56.80
52965;DHT22;42923;53.220;6.528;2022-09-03T11:36:36;29.10;56.80
52965;DHT22;42923;53.220;6.528;2022-09-03T11:39:19;29.20;57.10
52965;DHT22;42923;53.220;6.528;2022-09-03T11:42:08;29.40;56.50
52965;DHT22;42923;53.220;6.528;2022-09-03T11:44:45;29.60;56.60
52965;DHT22;42923;53.220;6.528;2022-09-03T11:47:36;29.90;56.00
52965;DHT22;42923;53.220;6.528;2022-09-03T11:50:30;30.00;53.60
52965;DHT22;42923;53.220;6.528;2022-09-03T11:53:23;30.00;54.30
52965;DHT22;42923;53.220;6.528;2022-09-03T11:58:24;29.90;54.70
52965;DHT22;42923;53.220;6.528;2022-09-03T12:00:51;30.00;53.60
52965;DHT22;42923;53.220;6.528;2022-09-03T12:12:13;30.70;52.50
52965;DHT22;42923;53.220;6.528;2022-09-03T12:14:51;30.90;52.50
52965;DHT22;42923;53.220;6.528;2022-09-03T12:17:31;31.00;51.00
52965;DHT22;42923;53.220;6.528;2022-09-03T12:19:58;31.10;51.10
52965;DHT22;42923;53.220;6.528;2022-09-03T12:22:27;31.10;49.80
52965;DHT22;42923;53.220;6.528;2022-09-03T12:25:13;31.10;50.10
52965;DHT22;42923;53.220;6.528;2022-09-03T12:27:42;31.20;50.80
52965;DHT22;42923;53.220;6.528;2022-09-03T12:30:21;31.40;49.20
52965;DHT22;42923;53.220;6.528;2022-09-03T12:32:48;31.40;48.90
52965;DHT22;42923;53.220;6.528;2022-09-03T12:35:18;31.50;49.00
52965;DHT22;42923;53.220;6.528;2022-09-03T12:37:45;31.70;49.50
52965;DHT22;42923;53.220;6.528;2022-09-03T12:40:20;32.00;50.00
52965;DHT22;42923;53.220;6.528;2022-09-03T12:42:47;32.20;47.60
52965;DHT22;42923;53.220;6.528;2022-09-03T12:45:17;32.40;49.10
52965;DHT22;42923;53.220;6.528;2022-09-03T12:47:44;32.60;48.50
52965;DHT22;42923;53.220;6.528;2022-09-03T12:50:16;32.70;47.10
52965;DHT22;42923;53.220;6.528;2022-09-03T12:52:47;32.70;46.90
52965;DHT22;42923;53.220;6.528;2022-09-03T12:55:42;32.60;47.60
52965;DHT22;42923;53.220;6.528;2022-09-03T12:58:37;32.80;48.20
52965;DHT22;42923;53.220;6.528;2022-09-03T13:01:12;33.00;46.00
52965;DHT22;42923;53.220;6.528;2022-09-03T13:06:52;32.90;46.40
52965;DHT22;42923;53.220;6.528;2022-09-03T13:09:24;32.70;46.90
52965;DHT22;42923;53.220;6.528;2022-09-03T13:11:51;32.70;46.20
52965;DHT22;42923;53.220;6.528;2022-09-03T13:14:19;32.70;46.90
52965;DHT22;42923;53.220;6.528;2022-09-03T13:22:21;33.00;45.50
52965;DHT22;42923;53.220;6.528;2022-09-03T13:27:41;32.80;45.70
52965;DHT22;42923;53.220;6.528;2022-09-03T13:30:20;32.60;45.50
52965;DHT22;42923;53.220;6.528;2022-09-03T13:32:57;32.70;45.60
52965;DHT22;42923;53.220;6.528;2022-09-03T13:38:08;32.60;45.70
52965;DHT22;42923;53.220;6.528;2022-09-03T13:43:31;33.30;47.00
52965;DHT22;42923;53.220;6.528;2022-09-03T13:46:07;33.60;47.10
52965;DHT22;42923;53.220;6.528;2022-09-03T13:48:39;33.80;45.10
52965;DHT22;42923;53.220;6.528;2022-09-03T13:51:31;33.60;45.50
52965;DHT22;42923;53.220;6.528;2022-09-03T13:54:22;33.60;45.30
52965;DHT22;42923;53.220;6.528;2022-09-03T13:57:00;33.80;44.50
52965;DHT22;42923;53.220;6.528;2022-09-03T14:11:37;33.90;44.20
52965;DHT22;42923;53.220;6.528;2022-09-03T14:17:15;33.90;43.30
52965;DHT22;42923;53.220;6.528;2022-09-03T14:22:49;33.50;43.50
52965;DHT22;42923;53.220;6.528;2022-09-03T14:25:20;33.60;44.00
52965;DHT22;42923;53.220;6.528;2022-09-03T14:27:47;33.60;44.00
52965;DHT22;42923;53.220;6.528;2022-09-03T14:33:18;34.00;43.40
52965;DHT22;42923;53.220;6.528;2022-09-03T14:36:07;34.10;44.80
52965;DHT22;42923;53.220;6.528;2022-09-03T14:46:36;34.40;43.50
52965;DHT22;42923;53.220;6.528;2022-09-03T15:00:16;33.80;43.60
52965;DHT22;42923;53.220;6.528;2022-09-03T15:05:38;33.80;42.90
52965;DHT22;42923;53.220;6.528;2022-09-03T15:10:59;33.60;43.10
52965;DHT22;42923;53.220;6.528;2022-09-03T15:16:32;32.70;44.10
52965;DHT22;42923;53.220;6.528;2022-09-03T15:19:17;31.90;44.30
52965;DHT22;42923;53.220;6.528;2022-09-03T15:24:55;30.00;45.60
52965;DHT22;42923;53.220;6.528;2022-09-03T15:30:18;28.60;47.90
52965;DHT22;42923;53.220;6.528;2022-09-03T15:40:51;26.80;50.20
52965;DHT22;42923;53.220;6.528;2022-09-03T15:43:30;26.60;50.10
52965;DHT22;42923;53.220;6.528;2022-09-03T15:49:02;26.10;50.60
52965;DHT22;42923;53.220;6.528;2022-09-03T15:51:33;25.90;50.90
52965;DHT22;42923;53.220;6.528;2022-09-03T15:54:09;25.80;50.70
52965;DHT22;42923;53.220;6.528;2022-09-03T15:57:06;25.60;50.80
52965;DHT22;42923;53.220;6.528;2022-09-03T16:02:37;25.30;52.60
52965;DHT22;42923;53.220;6.528;2022-09-03T16:05:17;25.20;53.00
52965;DHT22;42923;53.220;6.528;2022-09-03T16:13:38;24.90;52.80
52965;DHT22;42923;53.220;6.528;2022-09-03T16:16:23;24.90;53.50
52965;DHT22;42923;53.220;6.528;2022-09-03T16:19:01;24.90;52.80
52965;DHT22;42923;53.220;6.528;2022-09-03T16:24:30;24.80;54.30
52965;DHT22;42923;53.220;6.528;2022-09-03T16:35:32;24.60;55.40
52965;DHT22;42923;53.220;6.528;2022-09-03T16:59:48;23.70;57.50
52965;DHT22;42923;53.220;6.528;2022-09-03T17:10:46;23.40;57.90
52965;DHT22;42923;53.220;6.528;2022-09-03T17:13:25;23.30;58.00
52965;DHT22;42923;53.220;6.528;2022-09-03T17:16:01;23.20;58.50
52965;DHT22;42923;53.220;6.528;2022-09-03T17:24:41;23.10;60.00
52965;DHT22;42923;53.220;6.528;2022-09-03T17:32:43;22.80;59.00
52965;DHT22;42923;53.220;6.528;2022-09-03T17:35:15;22.80;59.80
52965;DHT22;42923;53.220;6.528;2022-09-03T17:38:03;22.90;59.80
52965;DHT22;42923;53.220;6.528;2022-09-03T17:43:15;22.80;60.00
52965;DHT22;42923;53.220;6.528;2022-09-03T17:51:11;22.50;60.50
52965;DHT22;42923;53.220;6.528;2022-09-03T17:54:03;22.40;60.50
52965;DHT22;42923;53.220;6.528;2022-09-03T17:56:41;22.40;60.80
52965;DHT22;42923;53.220;6.528;2022-09-03T18:02:02;22.30;61.80
52965;DHT22;42923;53.220;6.528;2022-09-03T18:04:41;22.10;62.20
52965;DHT22;42923;53.220;6.528;2022-09-03T18:07:14;22.10;62.10
52965;DHT22;42923;53.220;6.528;2022-09-03T18:10:24;22.00;61.50
52965;DHT22;42923;53.220;6.528;2022-09-03T18:15:54;21.80;62.00
52965;DHT22;42923;53.220;6.528;2022-09-03T18:18:29;21.70;62.60
52965;DHT22;42923;53.220;6.528;2022-09-03T18:20:58;21.60;63.00
52965;DHT22;42923;53.220;6.528;2022-09-03T18:23:52;21.60;63.00
52965;DHT22;42923;53.220;6.528;2022-09-03T18:26:43;21.40;62.80
52965;DHT22;42923;53.220;6.528;2022-09-03T18:32:32;21.20;63.50
52965;DHT22;42923;53.220;6.528;2022-09-03T18:35:16;21.20;63.80
52965;DHT22;42923;53.220;6.528;2022-09-03T18:38:03;21.10;63.70
52965;DHT22;42923;53.220;6.528;2022-09-03T18:40:58;21.00;63.70
52965;DHT22;42923;53.220;6.528;2022-09-03T18:44:05;20.90;63.70
52965;DHT22;42923;53.220;6.528;2022-09-03T18:46:58;20.90;64.40
52965;DHT22;42923;53.220;6.528;2022-09-03T18:52:55;20.70;64.70
52965;DHT22;42923;53.220;6.528;2022-09-03T19:01:40;20.70;64.40
52965;DHT22;42923;53.220;6.528;2022-09-03T19:07:53;20.60;64.70
52965;DHT22;42923;53.220;6.528;2022-09-03T19:10:49;20.60;64.70
52965;DHT22;42923;53.220;6.528;2022-09-03T19:13:36;20.60;64.40
52965;DHT22;42923;53.220;6.528;2022-09-03T19:19:35;20.60;64.90
52965;DHT22;42923;53.220;6.528;2022-09-03T19:22:36;20.40;65.80
52965;DHT22;42923;53.220;6.528;2022-09-03T19:25:21;20.30;65.70
52965;DHT22;42923;53.220;6.528;2022-09-03T19:34:08;20.10;65.80
52965;DHT22;42923;53.220;6.528;2022-09-03T19:37:01;20.00;66.00
52965;DHT22;42923;53.220;6.528;2022-09-03T19:43:50;19.80;67.00
52965;DHT22;42923;53.220;6.528;2022-09-03T19:46:53;19.80;66.80
52965;DHT22;42923;53.220;6.528;2022-09-03T19:52:55;19.80;67.50
52965;DHT22;42923;53.220;6.528;2022-09-03T19:55:47;19.80;67.40
52965;DHT22;42923;53.220;6.528;2022-09-03T19:58:35;19.70;67.60
52965;DHT22;42923;53.220;6.528;2022-09-03T20:01:28;19.60;67.50
52965;DHT22;42923;53.220;6.528;2022-09-03T20:04:15;19.60;67.70
52965;DHT22;42923;53.220;6.528;2022-09-03T20:07:02;19.40;67.90
52965;DHT22;42923;53.220;6.528;2022-09-03T20:09:48;19.40;67.70
52965;DHT22;42923;53.220;6.528;2022-09-03T20:12:37;19.40;68.00
52965;DHT22;42923;53.220;6.528;2022-09-03T20:15:06;19.40;68.00
52965;DHT22;42923;53.220;6.528;2022-09-03T20:18:14;19.30;68.00
52965;DHT22;42923;53.220;6.528;2022-09-03T20:20:54;19.30;68.20
52965;DHT22;42923;53.220;6.528;2022-09-03T20:23:49;19.20;67.80
52965;DHT22;42923;53.220;6.528;2022-09-03T20:26:23;19.20;68.30
52965;DHT22;42923;53.220;6.528;2022-09-03T20:44:53;18.90;68.70
52965;DHT22;42923;53.220;6.528;2022-09-03T20:56:26;18.60;69.20
52965;DHT22;42923;53.220;6.528;2022-09-03T21:15:40;18.70;69.90
52965;DHT22;42923;53.220;6.528;2022-09-03T21:21:14;18.40;70.20
52965;DHT22;42923;53.220;6.528;2022-09-03T21:23:49;18.40;70.20
52965;DHT22;42923;53.220;6.528;2022-09-03T21:26:21;18.30;70.40
52965;DHT22;42923;53.220;6.528;2022-09-03T21:29:10;18.20;70.70
52965;DHT22;42923;53.220;6.528;2022-09-03T21:31:46;18.10;72.00
52965;DHT22;42923;53.220;6.528;2022-09-03T21:34:18;18.00;71.40
52965;DHT22;42923;53.220;6.528;2022-09-03T21:36:45;18.00;71.70
52965;DHT22;42923;53.220;6.528;2022-09-03T21:39:41;18.00;72.10
52965;DHT22;42923;53.220;6.528;2022-09-03T21:45:03;17.90;73.10
52965;DHT22;42923;53.220;6.528;2022-09-03T21:47:37;17.80;73.40
52965;DHT22;42923;53.220;6.528;2022-09-03T21:50:27;17.80;73.70
52965;DHT22;42923;53.220;6.528;2022-09-03T21:53:04;17.70;74.20
52965;DHT22;42923;53.220;6.528;2022-09-03T22:04:25;17.50;76.90
52965;DHT22;42923;53.220;6.528;2022-09-03T22:10:13;17.50;77.60
52965;DHT22;42923;53.220;6.528;2022-09-03T22:12:45;17.40;79.10
52965;DHT22;42923;53.220;6.528;2022-09-03T22:15:14;17.40;79.20
52965;DHT22;42923;53.220;6.528;2022-09-03T22:17:51;17.40;79.70
52965;DHT22;42923;53.220;6.528;2022-09-03T22:20:26;17.40;80.80
52965;DHT22;42923;53.220;6.528;2022-09-03T22:23:03;17.40;81.30
52965;DHT22;42923;53.220;6.528;2022-09-03T22:28:18;17.40;82.70
52965;DHT22;42923;53.220;6.528;2022-09-03T22:31:10;17.30;83.60
52965;DHT22;42923;53.220;6.528;2022-09-03T22:33:59;17.20;84.20
52965;DHT22;42923;53.220;6.528;2022-09-03T22:36:38;17.20;85.80
52965;DHT22;42923;53.220;6.528;2022-09-03T22:52:45;16.90;91.50